sensor_id;sensor_type;location;lat;lon;timestamp;temperature;humidity
4922;DHT22;16625;53.624;10.106;2023-02-24T07:25:52;2.70;99.90
4922;DHT22;16625;53.624;10.106;2023-02-24T07:28:22;2.90;99.90
4922;DHT22;16625;53.624;10.106;2023-02-24T07:30:50;3.10;99.90
4922;DHT22;16625;53.624;10.106;2023-02-24T07:33:17;2.70;99.90
4922;DHT22;16625;53.624;10.106;2023-02-24T07:35:48;2.80;99.90
4922;DHT22;16625;53.624;10.106;2023-02-24T07:38:16;2.80;99.90
4922;DHT22;16625;53.624;10.106;2023-02-24T07:40:47;2.90;99.90
4922;DHT22;16625;53.624;10.106;2023-02-24T07:43:16;2.70;99.90
4922;DHT22;16625;53.624;10.106;2023-02-24T07:45:47;2.80;99.90
4922;DHT22;16625;53.624;10.106;2023-02-24T07:48:14;2.70;99.90
4922;DHT22;16625;53.624;10.106;2023-02-24T07:50:41;2.70;99.90
4922;DHT22;16625;53.624;10.106;2023-02-24T07:53:08;2.70;99.90
4922;DHT22;16625;53.624;10.106;2023-02-24T07:55:35;2.80;99.90
4922;DHT22;16625;53.624;10.106;2023-02-24T07:58:02;2.70;99.90
4922;DHT22;16625;53.624;10.106;2023-02-24T08:00:31;2.80;99.90
4922;DHT22;16625;53.624;10.106;2023-02-24T08:03:14;2.90;99.90
4922;DHT22;16625;53.624;10.106;2023-02-24T08:05:41;2.60;99.90
4922;DHT22;16625;53.624;10.106;2023-02-24T08:08:09;2.60;99.90
4922;DHT22;16625;53.624;10.106;2023-02-24T08:10:39;2.60;99.90
4922;DHT22;16625;53.624;10.106;2023-02-24T08:13:06;2.80;99.90
4922;DHT22;16625;53.624;10.106;2023-02-24T08:15:37;2.60;99.90
4922;DHT22;16625;53.624;10.106;2023-02-24T08:18:04;2.70;99.90
4922;DHT22;16625;53.624;10.106;2023-02-24T08:20:31;2.60;99.90
4922;DHT22;16625;53.624;10.106;2023-02-24T08:23:16;2.80;99.90
4922;DHT22;16625;53.624;10.106;2023-02-24T08:25:44;2.70;99.90
4922;DHT22;16625;53.624;10.106;2023-02-24T08:28:11;2.60;99.90
4922;DHT22;16625;53.624;10.106;2023-02-24T08:30:41;2.60;99.90
4922;DHT22;16625;53.624;10.106;2023-02-24T08:33:12;2.60;99.90
4922;DHT22;16625;53.624;10.106;2023-02-24T08:35:43;2.60;99.90
4922;DHT22;16625;53.624;10.106;2023-02-24T08:38:12;2.60;99.90
4922;DHT22;16625;53.624;10.106;2023-02-24T08:40:43;2.80;99.90
4922;DHT22;16625;53.624;10.106;2023-02-24T08:43:23;2.70;99.90
4922;DHT22;16625;53.624;10.106;2023-02-24T08:46:12;2.90;99.90
4922;DHT22;16625;53.624;10.106;2023-02-24T08:48:44;2.80;99.90
4922;DHT22;16625;53.624;10.106;2023-02-24T08:51:13;2.70;99.90
4922;DHT22;16625;53.624;10.106;2023-02-24T08:53:42;3.00;99.90
4922;DHT22;16625;53.624;10.106;2023-02-24T08:56:13;2.70;99.90
4922;DHT22;16625;53.624;10.106;2023-02-24T08:58:50;2.80;99.90
4922;DHT22;16625;53.624;10.106;2023-02-24T09:01:25;2.70;99.90
4922;DHT22;16625;53.624;10.106;2023-02-24T09:03:57;2.80;99.90
4922;DHT22;16625;53.624;10.106;2023-02-24T09:06:34;2.90;99.90
4922;DHT22;16625;53.624;10.106;2023-02-24T09:09:02;2.70;99.90
4922;DHT22;16625;53.624;10.106;2023-02-24T09:11:46;2.80;99.90
4922;DHT22;16625;53.624;10.106;2023-02-24T09:14:17;2.80;99.90
4922;DHT22;16625;53.624;10.106;2023-02-24T09:16:48;3.10;99.90
4922;DHT22;16625;53.624;10.106;2023-02-24T09:19:29;2.80;99.90
4922;DHT22;16625;53.624;10.106;2023-02-24T09:22:15;2.70;99.90
4922;DHT22;16625;53.624;10.106;2023-02-24T09:24:56;3.00;99.90
4922;DHT22;16625;53.624;10.106;2023-02-24T09:27:42;3.00;99.90
4922;DHT22;16625;53.624;10.106;2023-02-24T09:30:12;2.70;99.90
4922;DHT22;16625;53.624;10.106;2023-02-24T09:33:08;2.80;99.90
4922;DHT22;16625;53.624;10.106;2023-02-24T09:35:43;2.80;99.90
4922;DHT22;16625;53.624;10.106;2023-02-24T09:38:11;2.80;99.90
4922;DHT22;16625;53.624;10.106;2023-02-24T09:40:41;2.80;99.90
4922;DHT22;16625;53.624;10.106;2023-02-24T09:43:16;2.90;99.90
4922;DHT22;16625;53.624;10.106;2023-02-24T09:45:54;2.90;99.90
4922;DHT22;16625;53.624;10.106;2023-02-24T09:48:37;3.10;99.90
4922;DHT22;16625;53.624;10.106;2023-02-24T09:51:11;3.10;99.90
4922;DHT22;16625;53.624;10.106;2023-02-24T09:53:47;2.90;99.90
4922;DHT22;16625;53.624;10.106;2023-02-24T09:56:23;3.00;99.90
4922;DHT22;16625;53.624;10.106;2023-02-24T09:58:56;3.00;99.90
4922;DHT22;16625;53.624;10.106;2023-02-24T10:01:43;3.10;99.90
4922;DHT22;16625;53.624;10.106;2023-02-24T10:07:27;3.10;99.90
4922;DHT22;16625;53.624;10.106;2023-02-24T10:10:05;3.10;99.90
4922;DHT22;16625;53.624;10.106;2023-02-24T10:12:48;3.20;99.90
4922;DHT22;16625;53.624;10.106;2023-02-24T10:15:19;3.30;99.90
4922;DHT22;16625;53.624;10.106;2023-02-24T10:18:31;3.60;99.90
4922;DHT22;16625;53.624;10.106;2023-02-24T10:21:13;3.30;99.90
4922;DHT22;16625;53.624;10.106;2023-02-24T10:23:56;3.20;99.90
4922;DHT22;16625;53.624;10.106;2023-02-24T10:26:29;3.30;99.90
4922;DHT22;16625;53.624;10.106;2023-02-24T10:29:16;3.30;99.90
4922;DHT22;16625;53.624;10.106;2023-02-24T10:32:06;3.30;99.90
4922;DHT22;16625;53.624;10.106;2023-02-24T10:34:41;3.30;99.90
4922;DHT22;16625;53.624;10.106;2023-02-24T10:37:13;3.30;99.90
4922;DHT22;16625;53.624;10.106;2023-02-24T10:39:44;3.60;99.90
4922;DHT22;16625;53.624;10.106;2023-02-24T10:42:22;3.50;99.90
4922;DHT22;16625;53.624;10.106;2023-02-24T10:44:50;3.40;99.90
4922;DHT22;16625;53.624;10.106;2023-02-24T10:47:19;3.30;99.90
4922;DHT22;16625;53.624;10.106;2023-02-24T10:49:56;3.50;99.90
4922;DHT22;16625;53.624;10.106;2023-02-24T10:52:29;3.60;99.90
4922;DHT22;16625;53.624;10.106;2023-02-24T10:55:23;3.70;99.90
4922;DHT22;16625;53.624;10.106;2023-02-24T10:57:55;3.60;99.90
4922;DHT22;16625;53.624;10.106;2023-02-24T11:00:38;3.60;99.90
4922;DHT22;16625;53.624;10.106;2023-02-24T11:03:26;3.90;99.90
4922;DHT22;16625;53.624;10.106;2023-02-24T11:06:18;3.80;99.90
4922;DHT22;16625;53.624;10.106;2023-02-24T11:09:00;4.30;99.90
4922;DHT22;16625;53.624;10.106;2023-02-24T11:11:58;4.00;99.90
4922;DHT22;16625;53.624;10.106;2023-02-24T11:14:49;3.90;99.90
4922;DHT22;16625;53.624;10.106;2023-02-24T11:17:34;4.30;99.90
4922;DHT22;16625;53.624;10.106;2023-02-24T11:20:04;4.10;99.90
4922;DHT22;16625;53.624;10.106;2023-02-24T11:22:37;4.20;99.90
4922;DHT22;16625;53.624;10.106;2023-02-24T11:25:11;4.30;99.90
4922;DHT22;16625;53.624;10.106;2023-02-24T11:27:40;4.30;99.90
4922;DHT22;16625;53.624;10.106;2023-02-24T11:30:16;4.40;99.90
4922;DHT22;16625;53.624;10.106;2023-02-24T11:32:56;4.60;99.90
4922;DHT22;16625;53.624;10.106;2023-02-24T11:35:32;4.40;99.90
4922;DHT22;16625;53.624;10.106;2023-02-24T11:38:08;4.50;99.90
4922;DHT22;16625;53.624;10.106;2023-02-24T11:40:42;4.60;99.90
4922;DHT22;16625;53.624;10.106;2023-02-24T11:43:16;4.50;99.90
4922;DHT22;16625;53.624;10.106;2023-02-24T11:45:46;4.70;99.90
4922;DHT22;16625;53.624;10.106;2023-02-24T11:48:17;4.40;99.90
4922;DHT22;16625;53.624;10.106;2023-02-24T11:50:46;4.60;99.90
4922;DHT22;16625;53.624;10.106;2023-02-24T11:53:24;4.50;99.90
4922;DHT22;16625;53.624;10.106;2023-02-24T11:55:58;4.40;99.90
4922;DHT22;16625;53.624;10.106;2023-02-24T11:58:34;4.30;99.90
4922;DHT22;16625;53.624;10.106;2023-02-24T12:01:09;4.70;99.90
4922;DHT22;16625;53.624;10.106;2023-02-24T12:03:47;4.50;99.90
4922;DHT22;16625;53.624;10.106;2023-02-24T12:06:19;4.70;99.90
4922;DHT22;16625;53.624;10.106;2023-02-24T12:08:52;4.60;99.90
4922;DHT22;16625;53.624;10.106;2023-02-24T12:11:32;4.90;99.90
4922;DHT22;16625;53.624;10.106;2023-02-24T12:14:16;4.80;99.90
4922;DHT22;16625;53.624;10.106;2023-02-24T12:16:46;4.70;99.90
4922;DHT22;16625;53.624;10.106;2023-02-24T12:19:17;4.80;99.90
4922;DHT22;16625;53.624;10.106;2023-02-24T12:21:50;4.90;99.90
4922;DHT22;16625;53.624;10.106;2023-02-24T12:24:18;5.00;99.90
4922;DHT22;16625;53.624;10.106;2023-02-24T12:27:01;5.10;99.90
4922;DHT22;16625;53.624;10.106;2023-02-24T12:29:49;4.90;99.90
4922;DHT22;16625;53.624;10.106;2023-02-24T12:32:26;4.90;99.90
4922;DHT22;16625;53.624;10.106;2023-02-24T12:35:02;4.80;99.90
4922;DHT22;16625;53.624;10.106;2023-02-24T12:37:51;5.10;99.90
4922;DHT22;16625;53.624;10.106;2023-02-24T12:40:28;4.90;99.90
4922;DHT22;16625;53.624;10.106;2023-02-24T12:43:14;4.90;99.90
4922;DHT22;16625;53.624;10.106;2023-02-24T12:45:48;5.20;99.90
4922;DHT22;16625;53.624;10.106;2023-02-24T12:48:36;5.40;99.90
4922;DHT22;16625;53.624;10.106;2023-02-24T12:51:18;5.60;99.90
4922;DHT22;16625;53.624;10.106;2023-02-24T12:53:53;5.50;99.90
4922;DHT22;16625;53.624;10.106;2023-02-24T12:56:24;5.70;99.90
4922;DHT22;16625;53.624;10.106;2023-02-24T12:58:57;5.70;99.90
4922;DHT22;16625;53.624;10.106;2023-02-24T13:01:30;6.20;99.90
4922;DHT22;16625;53.624;10.106;2023-02-24T13:04:10;6.40;99.90
4922;DHT22;16625;53.624;10.106;2023-02-24T13:06:51;6.60;99.90
4922;DHT22;16625;53.624;10.106;2023-02-24T13:09:23;6.60;99.90
4922;DHT22;16625;53.624;10.106;2023-02-24T13:11:54;6.80;99.90
4922;DHT22;16625;53.624;10.106;2023-02-24T13:14:27;6.70;14.30
4922;DHT22;16625;53.624;10.106;2023-02-24T13:17:05;6.60;1.00
4922;DHT22;16625;53.624;10.106;2023-02-24T13:19:32;6.40;1.00
4922;DHT22;16625;53.624;10.106;2023-02-24T13:22:05;6.70;74.90
4922;DHT22;16625;53.624;10.106;2023-02-24T13:24:33;6.70;99.90
4922;DHT22;16625;53.624;10.106;2023-02-24T13:27:05;6.80;42.80
4922;DHT22;16625;53.624;10.106;2023-02-24T13:29:43;6.80;1.00
4922;DHT22;16625;53.624;10.106;2023-02-24T13:32:26;7.10;1.00
4922;DHT22;16625;53.624;10.106;2023-02-24T13:34:54;7.10;1.00
4922;DHT22;16625;53.624;10.106;2023-02-24T13:37:29;6.70;1.00
4922;DHT22;16625;53.624;10.106;2023-02-24T13:39:56;6.70;1.00
4922;DHT22;16625;53.624;10.106;2023-02-24T13:42:30;6.50;1.00
4922;DHT22;16625;53.624;10.106;2023-02-24T13:45:04;6.60;16.30
4922;DHT22;16625;53.624;10.106;2023-02-24T13:47:50;6.20;99.90
4922;DHT22;16625;53.624;10.106;2023-02-24T13:50:23;6.20;99.90
4922;DHT22;16625;53.624;10.106;2023-02-24T13:53:15;6.10;99.90
4922;DHT22;16625;53.624;10.106;2023-02-24T13:55:56;6.00;99.90
4922;DHT22;16625;53.624;10.106;2023-02-24T13:58:44;5.80;99.90
4922;DHT22;16625;53.624;10.106;2023-02-24T14:01:17;5.80;99.90
4922;DHT22;16625;53.624;10.106;2023-02-24T14:04:01;6.10;99.90
4922;DHT22;16625;53.624;10.106;2023-02-24T14:06:28;6.00;99.90
4922;DHT22;16625;53.624;10.106;2023-02-24T14:08:58;5.90;99.90
4922;DHT22;16625;53.624;10.106;2023-02-24T14:11:28;5.90;99.90
4922;DHT22;16625;53.624;10.106;2023-02-24T14:13:57;5.90;99.90
4922;DHT22;16625;53.624;10.106;2023-02-24T14:16:29;6.00;99.90
4922;DHT22;16625;53.624;10.106;2023-02-24T14:18:59;6.10;99.90
4922;DHT22;16625;53.624;10.106;2023-02-24T14:21:28;6.20;99.90
4922;DHT22;16625;53.624;10.106;2023-02-24T14:23:56;6.70;1.00
4922;DHT22;16625;53.624;10.106;2023-02-24T14:26:24;6.40;1.00
4922;DHT22;16625;53.624;10.106;2023-02-24T14:28:54;6.10;1.00
4922;DHT22;16625;53.624;10.106;2023-02-24T14:31:23;6.10;1.00
4922;DHT22;16625;53.624;10.106;2023-02-24T14:33:56;6.20;99.90
4922;DHT22;16625;53.624;10.106;2023-02-24T14:36:27;6.30;99.90
4922;DHT22;16625;53.624;10.106;2023-02-24T14:39:06;6.50;1.00
4922;DHT22;16625;53.624;10.106;2023-02-24T14:41:34;6.90;99.90
4922;DHT22;16625;53.624;10.106;2023-02-24T14:44:13;6.70;99.90
4922;DHT22;16625;53.624;10.106;2023-02-24T14:46:47;6.60;1.00
4922;DHT22;16625;53.624;10.106;2023-02-24T14:49:20;6.70;1.00
4922;DHT22;16625;53.624;10.106;2023-02-24T14:51:49;6.90;99.90
4922;DHT22;16625;53.624;10.106;2023-02-24T14:54:26;6.90;1.00
4922;DHT22;16625;53.624;10.106;2023-02-24T14:56:58;7.00;99.90
4922;DHT22;16625;53.624;10.106;2023-02-24T14:59:29;7.20;99.90
4922;DHT22;16625;53.624;10.106;2023-02-24T15:01:58;7.10;47.20
4922;DHT22;16625;53.624;10.106;2023-02-24T15:04:32;7.20;4.50
4922;DHT22;16625;53.624;10.106;2023-02-24T15:07:03;7.60;1.00
4922;DHT22;16625;53.624;10.106;2023-02-24T15:09:34;7.30;1.00
4922;DHT22;16625;53.624;10.106;2023-02-24T15:12:11;7.30;1.00
4922;DHT22;16625;53.624;10.106;2023-02-24T15:14:47;7.00;1.00
4922;DHT22;16625;53.624;10.106;2023-02-24T15:17:17;7.00;1.00
4922;DHT22;16625;53.624;10.106;2023-02-24T15:19:47;7.10;99.90
4922;DHT22;16625;53.624;10.106;2023-02-24T15:22:21;6.70;99.90
4922;DHT22;16625;53.624;10.106;2023-02-24T15:24:48;6.50;1.00
4922;DHT22;16625;53.624;10.106;2023-02-24T15:27:22;6.40;1.00
4922;DHT22;16625;53.624;10.106;2023-02-24T15:29:58;6.60;99.90
4922;DHT22;16625;53.624;10.106;2023-02-24T15:32:28;6.50;15.30
4922;DHT22;16625;53.624;10.106;2023-02-24T15:34:57;6.50;99.90
4922;DHT22;16625;53.624;10.106;2023-02-24T15:37:27;6.50;99.90
4922;DHT22;16625;53.624;10.106;2023-02-24T15:40:05;6.50;99.90
4922;DHT22;16625;53.624;10.106;2023-02-24T15:42:33;6.30;99.90
4922;DHT22;16625;53.624;10.106;2023-02-24T15:45:02;6.30;1.00
4922;DHT22;16625;53.624;10.106;2023-02-24T15:47:40;6.20;1.00
4922;DHT22;16625;53.624;10.106;2023-02-24T15:50:11;6.20;98.60
4922;DHT22;16625;53.624;10.106;2023-02-24T15:52:39;6.20;94.80
4922;DHT22;16625;53.624;10.106;2023-02-24T15:55:08;6.20;99.90
4922;DHT22;16625;53.624;10.106;2023-02-24T15:57:36;6.20;99.90
4922;DHT22;16625;53.624;10.106;2023-02-24T16:00:03;6.30;99.90
4922;DHT22;16625;53.624;10.106;2023-02-24T16:02:38;6.20;99.90
4922;DHT22;16625;53.624;10.106;2023-02-24T16:05:06;6.10;99.90
4922;DHT22;16625;53.624;10.106;2023-02-24T16:07:36;6.10;1.00
4922;DHT22;16625;53.624;10.106;2023-02-24T16:10:04;6.10;1.00
4922;DHT22;16625;53.624;10.106;2023-02-24T16:12:33;6.00;90.10
4922;DHT22;16625;53.624;10.106;2023-02-24T16:15:03;6.30;99.90
4922;DHT22;16625;53.624;10.106;2023-02-24T16:17:32;5.90;99.90
4922;DHT22;16625;53.624;10.106;2023-02-24T16:20:01;5.90;99.90
4922;DHT22;16625;53.624;10.106;2023-02-24T16:22:34;5.90;1.00
4922;DHT22;16625;53.624;10.106;2023-02-24T16:25:02;6.10;99.90
4922;DHT22;16625;53.624;10.106;2023-02-24T16:27:29;5.90;99.90
4922;DHT22;16625;53.624;10.106;2023-02-24T16:29:57;6.00;99.90
4922;DHT22;16625;53.624;10.106;2023-02-24T16:32:24;6.30;99.90
4922;DHT22;16625;53.624;10.106;2023-02-24T16:34:52;5.80;99.90
4922;DHT22;16625;53.624;10.106;2023-02-24T16:37:20;5.90;99.90
4922;DHT22;16625;53.624;10.106;2023-02-24T16:39:49;5.80;1.00
4922;DHT22;16625;53.624;10.106;2023-02-24T16:42:16;6.20;1.00
4922;DHT22;16625;53.624;10.106;2023-02-24T16:44:43;5.70;1.00
4922;DHT22;16625;53.624;10.106;2023-02-24T16:47:13;5.80;99.90
4922;DHT22;16625;53.624;10.106;2023-02-24T16:49:42;5.90;99.90
4922;DHT22;16625;53.624;10.106;2023-02-24T16:52:10;6.00;99.90
4922;DHT22;16625;53.624;10.106;2023-02-24T16:54:38;6.00;99.90
4922;DHT22;16625;53.624;10.106;2023-02-24T16:57:06;6.00;99.90
4922;DHT22;16625;53.624;10.106;2023-02-24T16:59:33;6.00;1.00
4922;DHT22;16625;53.624;10.106;2023-02-24T17:02:00;5.90;1.00
4922;DHT22;16625;53.624;10.106;2023-02-24T17:04:27;5.70;99.90
4922;DHT22;16625;53.624;10.106;2023-02-24T17:06:56;5.40;99.90
4922;DHT22;16625;53.624;10.106;2023-02-24T17:09:23;5.20;99.90
4922;DHT22;16625;53.624;10.106;2023-02-24T17:11:53;5.20;99.90
4922;DHT22;16625;53.624;10.106;2023-02-24T17:14:22;5.30;99.90
4922;DHT22;16625;53.624;10.106;2023-02-24T17:16:49;5.30;99.90
4922;DHT22;16625;53.624;10.106;2023-02-24T17:19:16;5.10;99.90
4922;DHT22;16625;53.624;10.106;2023-02-24T17:21:44;5.10;99.90
4922;DHT22;16625;53.624;10.106;2023-02-24T17:24:13;5.20;99.90
4922;DHT22;16625;53.624;10.106;2023-02-24T17:26:41;5.10;99.90
4922;DHT22;16625;53.624;10.106;2023-02-24T17:29:08;5.10;99.90
4922;DHT22;16625;53.624;10.106;2023-02-24T17:31:36;5.00;99.90
4922;DHT22;16625;53.624;10.106;2023-02-24T17:34:03;5.10;99.90
4922;DHT22;16625;53.624;10.106;2023-02-24T17:36:31;5.50;99.90
4922;DHT22;16625;53.624;10.106;2023-02-24T17:38:58;5.10;99.90
4922;DHT22;16625;53.624;10.106;2023-02-24T17:41:25;5.00;99.90
4922;DHT22;16625;53.624;10.106;2023-02-24T17:43:53;5.10;99.90
4922;DHT22;16625;53.624;10.106;2023-02-24T17:46:20;5.10;99.90
4922;DHT22;16625;53.624;10.106;2023-02-24T17:48:48;5.10;99.90
4922;DHT22;16625;53.624;10.106;2023-02-24T17:51:16;4.80;99.90
4922;DHT22;16625;53.624;10.106;2023-02-24T17:53:43;4.90;99.90
4922;DHT22;16625;53.624;10.106;2023-02-24T17:56:10;4.70;99.90
4922;DHT22;16625;53.624;10.106;2023-02-24T17:58:40;4.70;99.90
4922;DHT22;16625;53.624;10.106;2023-02-24T18:01:07;4.60;99.90
4922;DHT22;16625;53.624;10.106;2023-02-24T18:03:35;4.40;99.90
4922;DHT22;16625;53.624;10.106;2023-02-24T18:06:07;4.40;99.90
4922;DHT22;16625;53.624;10.106;2023-02-24T18:08:36;4.70;99.90
4922;DHT22;16625;53.624;10.106;2023-02-24T18:11:03;4.20;99.90
4922;DHT22;16625;53.624;10.106;2023-02-24T18:13:32;4.10;99.90
4922;DHT22;16625;53.624;10.106;2023-02-24T18:15:59;4.10;99.90
4922;DHT22;16625;53.624;10.106;2023-02-24T18:18:37;4.00;99.90
4922;DHT22;16625;53.624;10.106;2023-02-24T18:21:06;4.10;99.90
4922;DHT22;16625;53.624;10.106;2023-02-24T18:23:33;4.10;99.90
4922;DHT22;16625;53.624;10.106;2023-02-24T18:26:01;4.20;99.90
4922;DHT22;16625;53.624;10.106;2023-02-24T18:28:28;4.00;99.90
4922;DHT22;16625;53.624;10.106;2023-02-24T18:30:55;4.80;99.90
4922;DHT22;16625;53.624;10.106;2023-02-24T18:33:23;4.10;99.90
4922;DHT22;16625;53.624;10.106;2023-02-24T18:35:56;4.30;99.90
4922;DHT22;16625;53.624;10.106;2023-02-24T18:38:25;4.30;51.40
4922;DHT22;16625;53.624;10.106;2023-02-24T18:40:59;4.10;5.60
4922;DHT22;16625;53.624;10.106;2023-02-24T18:43:26;4.10;1.00
4922;DHT22;16625;53.624;10.106;2023-02-24T18:45:58;4.80;1.00
4922;DHT22;16625;53.624;10.106;2023-02-24T18:48:26;4.30;1.00
4922;DHT22;16625;53.624;10.106;2023-02-24T18:50:53;4.30;1.00
4922;DHT22;16625;53.624;10.106;2023-02-24T18:53:23;4.60;99.90
4922;DHT22;16625;53.624;10.106;2023-02-24T18:55:57;4.60;79.00
4922;DHT22;16625;53.624;10.106;2023-02-24T18:58:24;4.50;1.00
4922;DHT22;16625;53.624;10.106;2023-02-24T19:00:51;5.10;1.00
4922;DHT22;16625;53.624;10.106;2023-02-24T19:03:37;4.50;99.90
4922;DHT22;16625;53.624;10.106;2023-02-24T19:06:04;4.50;1.00
4922;DHT22;16625;53.624;10.106;2023-02-24T19:08:34;4.50;1.00
4922;DHT22;16625;53.624;10.106;2023-02-24T19:11:08;4.50;99.90
4922;DHT22;16625;53.624;10.106;2023-02-24T19:13:35;4.60;99.90
4922;DHT22;16625;53.624;10.106;2023-02-24T19:16:03;4.50;99.90
4922;DHT22;16625;53.624;10.106;2023-02-24T19:18:30;4.50;99.90
4922;DHT22;16625;53.624;10.106;2023-02-24T19:20:57;4.60;1.90
4922;DHT22;16625;53.624;10.106;2023-02-24T19:23:24;4.60;2.50
4922;DHT22;16625;53.624;10.106;2023-02-24T19:25:52;4.60;1.00
4922;DHT22;16625;53.624;10.106;2023-02-24T19:28:21;4.60;1.00
4922;DHT22;16625;53.624;10.106;2023-02-24T19:30:48;4.50;1.00
4922;DHT22;16625;53.624;10.106;2023-02-24T19:33:15;4.60;1.00
4922;DHT22;16625;53.624;10.106;2023-02-24T19:35:42;4.60;1.00
4922;DHT22;16625;53.624;10.106;2023-02-24T19:38:12;4.60;1.00
4922;DHT22;16625;53.624;10.106;2023-02-24T19:40:39;4.80;1.00
4922;DHT22;16625;53.624;10.106;2023-02-24T19:43:06;4.50;1.00
4922;DHT22;16625;53.624;10.106;2023-02-24T19:45:39;4.50;1.00
4922;DHT22;16625;53.624;10.106;2023-02-24T19:48:06;4.50;1.00
4922;DHT22;16625;53.624;10.106;2023-02-24T19:50:33;4.40;1.00
4922;DHT22;16625;53.624;10.106;2023-02-24T19:53:00;4.90;1.00
4922;DHT22;16625;53.624;10.106;2023-02-24T19:55:27;4.40;99.90
4922;DHT22;16625;53.624;10.106;2023-02-24T19:57:54;4.50;99.90
4922;DHT22;16625;53.624;10.106;2023-02-24T20:00:21;4.50;99.90
4922;DHT22;16625;53.624;10.106;2023-02-24T20:02:50;4.50;99.90
4922;DHT22;16625;53.624;10.106;2023-02-24T20:05:17;4.60;99.90
4922;DHT22;16625;53.624;10.106;2023-02-24T20:07:47;4.70;99.90
4922;DHT22;16625;53.624;10.106;2023-02-24T20:10:15;4.60;1.00
4922;DHT22;16625;53.624;10.106;2023-02-24T20:12:42;4.50;1.00
4922;DHT22;16625;53.624;10.106;2023-02-24T20:15:10;4.50;1.00
4922;DHT22;16625;53.624;10.106;2023-02-24T20:17:37;4.50;99.90
4922;DHT22;16625;53.624;10.106;2023-02-24T20:20:06;4.50;99.90
4922;DHT22;16625;53.624;10.106;2023-02-24T20:22:33;4.50;99.90
4922;DHT22;16625;53.624;10.106;2023-02-24T20:25:00;4.70;1.00
4922;DHT22;16625;53.624;10.106;2023-02-24T20:27:27;4.60;1.00
4922;DHT22;16625;53.624;10.106;2023-02-24T20:29:54;4.70;1.00
4922;DHT22;16625;53.624;10.106;2023-02-24T20:32:22;4.80;1.00
4922;DHT22;16625;53.624;10.106;2023-02-24T20:34:50;4.50;99.90
4922;DHT22;16625;53.624;10.106;2023-02-24T20:37:18;4.90;99.90
4922;DHT22;16625;53.624;10.106;2023-02-24T20:39:45;4.50;1.00
4922;DHT22;16625;53.624;10.106;2023-02-24T20:42:13;4.50;33.30
4922;DHT22;16625;53.624;10.106;2023-02-24T20:44:40;4.40;1.00
4922;DHT22;16625;53.624;10.106;2023-02-24T20:47:07;4.50;1.00
4922;DHT22;16625;53.624;10.106;2023-02-24T20:49:34;4.50;99.90
4922;DHT22;16625;53.624;10.106;2023-02-24T20:52:01;4.80;99.90
4922;DHT22;16625;53.624;10.106;2023-02-24T20:54:29;4.60;99.90
4922;DHT22;16625;53.624;10.106;2023-02-24T20:56:56;5.00;1.00
4922;DHT22;16625;53.624;10.106;2023-02-24T20:59:23;4.40;1.00
4922;DHT22;16625;53.624;10.106;2023-02-24T21:01:50;4.30;99.90
4922;DHT22;16625;53.624;10.106;2023-02-24T21:04:19;4.60;99.90
4922;DHT22;16625;53.624;10.106;2023-02-24T21:06:47;4.30;99.90
4922;DHT22;16625;53.624;10.106;2023-02-24T21:09:16;4.30;99.90
4922;DHT22;16625;53.624;10.106;2023-02-24T21:11:45;4.70;71.20
4922;DHT22;16625;53.624;10.106;2023-02-24T21:14:14;4.70;1.00
4922;DHT22;16625;53.624;10.106;2023-02-24T21:16:42;4.60;99.90
4922;DHT22;16625;53.624;10.106;2023-02-24T21:19:11;4.70;99.90
4922;DHT22;16625;53.624;10.106;2023-02-24T21:21:38;4.60;1.00
4922;DHT22;16625;53.624;10.106;2023-02-24T21:24:06;5.00;1.00
4922;DHT22;16625;53.624;10.106;2023-02-24T21:26:33;4.60;99.90
4922;DHT22;16625;53.624;10.106;2023-02-24T21:29:11;4.60;99.90
4922;DHT22;16625;53.624;10.106;2023-02-24T21:31:38;4.80;1.00
4922;DHT22;16625;53.624;10.106;2023-02-24T21:34:05;4.70;99.90
4922;DHT22;16625;53.624;10.106;2023-02-24T21:36:35;4.70;1.00
4922;DHT22;16625;53.624;10.106;2023-02-24T21:39:03;4.60;1.00
4922;DHT22;16625;53.624;10.106;2023-02-24T21:41:32;4.70;99.90
4922;DHT22;16625;53.624;10.106;2023-02-24T21:44:00;4.80;94.80
4922;DHT22;16625;53.624;10.106;2023-02-24T21:46:28;4.60;1.00
4922;DHT22;16625;53.624;10.106;2023-02-24T21:48:56;4.70;1.00
4922;DHT22;16625;53.624;10.106;2023-02-24T21:51:25;4.60;39.70
4922;DHT22;16625;53.624;10.106;2023-02-24T21:53:52;4.60;1.00
4922;DHT22;16625;53.624;10.106;2023-02-24T21:56:22;4.60;1.00
4922;DHT22;16625;53.624;10.106;2023-02-24T21:58:52;4.80;99.90
4922;DHT22;16625;53.624;10.106;2023-02-24T22:01:22;4.80;1.00
4922;DHT22;16625;53.624;10.106;2023-02-24T22:04:01;4.30;1.00
4922;DHT22;16625;53.624;10.106;2023-02-24T22:06:30;4.50;99.90
4922;DHT22;16625;53.624;10.106;2023-02-24T22:08:59;4.60;99.90
4922;DHT22;16625;53.624;10.106;2023-02-24T22:11:28;4.30;99.90
4922;DHT22;16625;53.624;10.106;2023-02-24T22:13:55;4.30;99.90
4922;DHT22;16625;53.624;10.106;2023-02-24T22:16:34;4.20;99.90
4922;DHT22;16625;53.624;10.106;2023-02-24T22:19:03;4.20;85.40
4922;DHT22;16625;53.624;10.106;2023-02-24T22:21:30;4.20;80.70
4922;DHT22;16625;53.624;10.106;2023-02-24T22:23:59;4.80;1.00
4922;DHT22;16625;53.624;10.106;2023-02-24T22:26:28;4.20;1.00
4922;DHT22;16625;53.624;10.106;2023-02-24T22:29:03;4.10;1.00
4922;DHT22;16625;53.624;10.106;2023-02-24T22:31:32;4.10;1.00
4922;DHT22;16625;53.624;10.106;2023-02-24T22:34:03;4.40;1.00
4922;DHT22;16625;53.624;10.106;2023-02-24T22:36:32;4.10;1.00
4922;DHT22;16625;53.624;10.106;2023-02-24T22:39:02;4.30;1.00
4922;DHT22;16625;53.624;10.106;2023-02-24T22:41:32;4.30;1.00
4922;DHT22;16625;53.624;10.106;2023-02-24T22:44:02;4.20;1.00
4922;DHT22;16625;53.624;10.106;2023-02-24T22:46:31;4.20;1.00
4922;DHT22;16625;53.624;10.106;2023-02-24T22:48:58;4.30;1.00
4922;DHT22;16625;53.624;10.106;2023-02-24T22:51:27;3.70;1.00
4922;DHT22;16625;53.624;10.106;2023-02-24T22:53:55;3.70;1.00
4922;DHT22;16625;53.624;10.106;2023-02-24T22:56:26;3.80;63.00
4922;DHT22;16625;53.624;10.106;2023-02-24T22:58:53;3.50;99.90
4922;DHT22;16625;53.624;10.106;2023-02-24T23:01:24;3.50;99.90
4922;DHT22;16625;53.624;10.106;2023-02-24T23:03:51;3.50;99.90
4922;DHT22;16625;53.624;10.106;2023-02-24T23:06:20;3.40;99.90
4922;DHT22;16625;53.624;10.106;2023-02-24T23:08:50;3.40;99.90
4922;DHT22;16625;53.624;10.106;2023-02-24T23:11:19;3.60;99.90
4922;DHT22;16625;53.624;10.106;2023-02-24T23:13:49;3.40;99.90
4922;DHT22;16625;53.624;10.106;2023-02-24T23:16:18;3.30;1.00
4922;DHT22;16625;53.624;10.106;2023-02-24T23:18:46;3.20;1.00
4922;DHT22;16625;53.624;10.106;2023-02-24T23:21:17;3.20;1.00
4922;DHT22;16625;53.624;10.106;2023-02-24T23:23:45;3.20;1.00
4922;DHT22;16625;53.624;10.106;2023-02-24T23:26:14;3.20;1.00
4922;DHT22;16625;53.624;10.106;2023-02-24T23:28:42;3.30;84.70
4922;DHT22;16625;53.624;10.106;2023-02-24T23:31:16;3.10;99.90
4922;DHT22;16625;53.624;10.106;2023-02-24T23:33:43;3.10;99.90
4922;DHT22;16625;53.624;10.106;2023-02-24T23:36:10;3.10;87.50
4922;DHT22;16625;53.624;10.106;2023-02-24T23:38:37;3.20;99.90
4922;DHT22;16625;53.624;10.106;2023-02-24T23:41:06;3.10;77.50
4922;DHT22;16625;53.624;10.106;2023-02-24T23:43:35;3.00;99.90
4922;DHT22;16625;53.624;10.106;2023-02-24T23:46:03;3.50;99.90